Alto Paraiso de Goias, Brazil
Current Conditions -  °F | °C
As of 8:00 PM on Friday 31 Oct 2014 (Local Time) from SBBR Reporting Station
Few Clouds Few Clouds  
Wind Chill: 73°   Ceiling: Unl
Heat Index: 73°   Visibility: 6mi
Dew Point: 61°   Wind: 3mph
Humidity: 65%   Direction: 40°NE
Pressure: 30.03"   Gusts: NA
Location:  14.12°S, 47.52°W
Report Text: SBBR 312200Z 04003KT 9999 FEW035 23/16 Q1017
Loading
Personal Weather Stations






























Interactive Weather Map
Tropical Storm Tracking
New forecast layout! Learn more

10-Day Weather Forecast

Advertisements
Track Severe Weather on mobile